sensor_id;sensor_type;location;lat;lon;timestamp;P1;durP1;ratioP1;P2;durP2;ratioP2
14734;SDS011;7458;49.002;8.472;2022-08-19T00:01:30;20.80;;;18.77;;
14734;SDS011;7458;49.002;8.472;2022-08-19T00:03:59;21.73;;;17.27;;
14734;SDS011;7458;49.002;8.472;2022-08-19T00:06:29;20.20;;;18.50;;
14734;SDS011;7458;49.002;8.472;2022-08-19T00:08:55;20.48;;;17.48;;
14734;SDS011;7458;49.002;8.472;2022-08-19T00:11:23;20.65;;;18.55;;
14734;SDS011;7458;49.002;8.472;2022-08-19T00:13:50;19.45;;;17.63;;
14734;SDS011;7458;49.002;8.472;2022-08-19T00:16:17;21.30;;;19.25;;
14734;SDS011;7458;49.002;8.472;2022-08-19T00:18:47;19.08;;;17.17;;
14734;SDS011;7458;49.002;8.472;2022-08-19T00:21:14;19.48;;;17.63;;
14734;SDS011;7458;49.002;8.472;2022-08-19T00:23:40;20.33;;;18.27;;
14734;SDS011;7458;49.002;8.472;2022-08-19T00:26:08;21.15;;;18.98;;
14734;SDS011;7458;49.002;8.472;2022-08-19T00:28:36;18.38;;;16.48;;
14734;SDS011;7458;49.002;8.472;2022-08-19T00:31:03;19.70;;;18.00;;
14734;SDS011;7458;49.002;8.472;2022-08-19T00:33:31;19.73;;;17.83;;
14734;SDS011;7458;49.002;8.472;2022-08-19T00:36:02;21.80;;;19.55;;
14734;SDS011;7458;49.002;8.472;2022-08-19T00:38:34;19.10;;;17.40;;
14734;SDS011;7458;49.002;8.472;2022-08-19T00:41:03;20.02;;;17.92;;
14734;SDS011;7458;49.002;8.472;2022-08-19T00:43:30;20.50;;;18.63;;
14734;SDS011;7458;49.002;8.472;2022-08-19T00:45:56;20.15;;;18.27;;
14734;SDS011;7458;49.002;8.472;2022-08-19T00:48:22;18.08;;;16.52;;
14734;SDS011;7458;49.002;8.472;2022-08-19T00:50:49;21.13;;;18.77;;
14734;SDS011;7458;49.002;8.472;2022-08-19T00:53:18;20.13;;;18.33;;
14734;SDS011;7458;49.002;8.472;2022-08-19T00:55:56;21.83;;;19.77;;
14734;SDS011;7458;49.002;8.472;2022-08-19T00:58:26;23.05;;;20.42;;
14734;SDS011;7458;49.002;8.472;2022-08-19T01:00:57;20.33;;;18.33;;
14734;SDS011;7458;49.002;8.472;2022-08-19T01:03:23;22.52;;;20.42;;
14734;SDS011;7458;49.002;8.472;2022-08-19T01:05:49;19.83;;;17.85;;
14734;SDS011;7458;49.002;8.472;2022-08-19T01:08:19;21.67;;;19.33;;
14734;SDS011;7458;49.002;8.472;2022-08-19T01:10:49;20.98;;;19.05;;
14734;SDS011;7458;49.002;8.472;2022-08-19T01:13:21;21.03;;;19.13;;
14734;SDS011;7458;49.002;8.472;2022-08-19T01:15:52;22.48;;;17.88;;
14734;SDS011;7458;49.002;8.472;2022-08-19T01:18:29;18.05;;;16.33;;
14734;SDS011;7458;49.002;8.472;2022-08-19T01:20:58;21.33;;;19.33;;
14734;SDS011;7458;49.002;8.472;2022-08-19T01:23:31;20.25;;;18.27;;
14734;SDS011;7458;49.002;8.472;2022-08-19T01:26:19;21.77;;;19.60;;
14734;SDS011;7458;49.002;8.472;2022-08-19T01:28:49;22.48;;;20.23;;
14734;SDS011;7458;49.002;8.472;2022-08-19T01:31:19;21.17;;;19.23;;
14734;SDS011;7458;49.002;8.472;2022-08-19T01:33:49;23.25;;;21.05;;
14734;SDS011;7458;49.002;8.472;2022-08-19T01:36:26;22.67;;;20.48;;
14734;SDS011;7458;49.002;8.472;2022-08-19T01:39:03;20.70;;;18.75;;
14734;SDS011;7458;49.002;8.472;2022-08-19T01:41:33;20.60;;;18.80;;
14734;SDS011;7458;49.002;8.472;2022-08-19T01:44:00;21.42;;;19.45;;
14734;SDS011;7458;49.002;8.472;2022-08-19T01:46:28;23.42;;;20.98;;
14734;SDS011;7458;49.002;8.472;2022-08-19T01:48:56;23.35;;;21.23;;
14734;SDS011;7458;49.002;8.472;2022-08-19T01:51:22;21.77;;;19.88;;
14734;SDS011;7458;49.002;8.472;2022-08-19T01:53:49;23.48;;;21.20;;
14734;SDS011;7458;49.002;8.472;2022-08-19T01:56:17;22.27;;;20.25;;
14734;SDS011;7458;49.002;8.472;2022-08-19T01:58:47;22.35;;;20.17;;
14734;SDS011;7458;49.002;8.472;2022-08-19T02:01:22;22.50;;;20.50;;
14734;SDS011;7458;49.002;8.472;2022-08-19T02:03:48;21.52;;;19.58;;
14734;SDS011;7458;49.002;8.472;2022-08-19T02:06:13;20.75;;;18.90;;
14734;SDS011;7458;49.002;8.472;2022-08-19T02:08:42;22.60;;;20.38;;
14734;SDS011;7458;49.002;8.472;2022-08-19T02:11:17;23.38;;;21.27;;
14734;SDS011;7458;49.002;8.472;2022-08-19T02:13:51;54.30;;;49.90;;
14734;SDS011;7458;49.002;8.472;2022-08-19T02:16:18;219.90;;;201.48;;
14734;SDS011;7458;49.002;8.472;2022-08-19T02:18:46;120.40;;;110.82;;
14734;SDS011;7458;49.002;8.472;2022-08-19T02:21:18;547.38;;;505.67;;
14734;SDS011;7458;49.002;8.472;2022-08-19T02:23:47;23.70;;;21.52;;
14734;SDS011;7458;49.002;8.472;2022-08-19T02:26:14;24.25;;;21.77;;
14734;SDS011;7458;49.002;8.472;2022-08-19T02:28:42;24.10;;;21.92;;
14734;SDS011;7458;49.002;8.472;2022-08-19T02:31:09;24.08;;;21.77;;
14734;SDS011;7458;49.002;8.472;2022-08-19T02:33:42;24.40;;;21.65;;
14734;SDS011;7458;49.002;8.472;2022-08-19T02:36:10;25.15;;;22.70;;
14734;SDS011;7458;49.002;8.472;2022-08-19T02:38:38;23.63;;;21.48;;
14734;SDS011;7458;49.002;8.472;2022-08-19T02:41:06;22.98;;;20.98;;
14734;SDS011;7458;49.002;8.472;2022-08-19T02:43:38;23.38;;;21.10;;
14734;SDS011;7458;49.002;8.472;2022-08-19T02:46:12;23.25;;;21.20;;
14734;SDS011;7458;49.002;8.472;2022-08-19T02:48:43;24.10;;;22.00;;
14734;SDS011;7458;49.002;8.472;2022-08-19T02:51:09;26.25;;;23.92;;
14734;SDS011;7458;49.002;8.472;2022-08-19T02:53:46;26.95;;;24.40;;
14734;SDS011;7458;49.002;8.472;2022-08-19T02:56:12;24.30;;;21.90;;
14734;SDS011;7458;49.002;8.472;2022-08-19T02:58:39;25.20;;;22.80;;
14734;SDS011;7458;49.002;8.472;2022-08-19T03:01:05;27.10;;;24.45;;
14734;SDS011;7458;49.002;8.472;2022-08-19T03:03:32;27.02;;;24.30;;
14734;SDS011;7458;49.002;8.472;2022-08-19T03:06:11;26.08;;;23.35;;
14734;SDS011;7458;49.002;8.472;2022-08-19T03:08:41;27.67;;;25.00;;
14734;SDS011;7458;49.002;8.472;2022-08-19T03:11:17;26.13;;;23.48;;
14734;SDS011;7458;49.002;8.472;2022-08-19T03:13:44;25.92;;;23.42;;
14734;SDS011;7458;49.002;8.472;2022-08-19T03:16:12;27.10;;;24.67;;
14734;SDS011;7458;49.002;8.472;2022-08-19T03:18:38;26.98;;;24.42;;
14734;SDS011;7458;49.002;8.472;2022-08-19T03:21:04;962.22;;;887.85;;
14734;SDS011;7458;49.002;8.472;2022-08-19T03:23:31;1365.25;;;999.90;;
14734;SDS011;7458;49.002;8.472;2022-08-19T03:25:57;1461.18;;;999.90;;
14734;SDS011;7458;49.002;8.472;2022-08-19T03:28:23;362.83;;;323.70;;
14734;SDS011;7458;49.002;8.472;2022-08-19T03:31:23;28.00;;;25.27;;
14734;SDS011;7458;49.002;8.472;2022-08-19T03:33:46;27.88;;;25.10;;
14734;SDS011;7458;49.002;8.472;2022-08-19T03:38:44;26.92;;;24.23;;
14734;SDS011;7458;49.002;8.472;2022-08-19T03:41:24;25.50;;;23.20;;
14734;SDS011;7458;49.002;8.472;2022-08-19T03:43:53;26.92;;;24.40;;
14734;SDS011;7458;49.002;8.472;2022-08-19T03:46:24;27.98;;;25.38;;
14734;SDS011;7458;49.002;8.472;2022-08-19T03:48:54;25.33;;;22.95;;
14734;SDS011;7458;49.002;8.472;2022-08-19T03:53:58;29.13;;;26.48;;
14734;SDS011;7458;49.002;8.472;2022-08-19T03:56:26;26.70;;;23.95;;
14734;SDS011;7458;49.002;8.472;2022-08-19T03:58:53;987.38;;;909.50;;
14734;SDS011;7458;49.002;8.472;2022-08-19T04:01:22;1378.15;;;999.90;;
14734;SDS011;7458;49.002;8.472;2022-08-19T04:03:51;29.40;;;26.58;;
14734;SDS011;7458;49.002;8.472;2022-08-19T04:06:21;33.03;;;27.27;;
14734;SDS011;7458;49.002;8.472;2022-08-19T04:08:51;30.50;;;27.48;;
14734;SDS011;7458;49.002;8.472;2022-08-19T04:11:20;806.30;;;742.55;;
14734;SDS011;7458;49.002;8.472;2022-08-19T04:13:50;29.73;;;26.92;;
14734;SDS011;7458;49.002;8.472;2022-08-19T04:16:20;29.63;;;26.85;;
14734;SDS011;7458;49.002;8.472;2022-08-19T04:18:48;1238.20;;;999.90;;
14734;SDS011;7458;49.002;8.472;2022-08-19T04:21:16;1437.65;;;999.90;;
14734;SDS011;7458;49.002;8.472;2022-08-19T04:23:47;1290.15;;;999.90;;
14734;SDS011;7458;49.002;8.472;2022-08-19T04:26:18;31.65;;;28.15;;
14734;SDS011;7458;49.002;8.472;2022-08-19T04:28:49;1356.10;;;999.90;;
14734;SDS011;7458;49.002;8.472;2022-08-19T04:31:26;372.83;;;336.70;;
14734;SDS011;7458;49.002;8.472;2022-08-19T04:33:56;29.10;;;26.40;;
14734;SDS011;7458;49.002;8.472;2022-08-19T04:36:26;33.00;;;30.10;;
14734;SDS011;7458;49.002;8.472;2022-08-19T04:39:00;32.08;;;29.13;;
14734;SDS011;7458;49.002;8.472;2022-08-19T04:41:32;29.90;;;26.77;;
14734;SDS011;7458;49.002;8.472;2022-08-19T04:44:17;30.10;;;26.95;;
14734;SDS011;7458;49.002;8.472;2022-08-19T04:46:44;31.30;;;28.02;;
14734;SDS011;7458;49.002;8.472;2022-08-19T04:49:13;31.30;;;27.98;;
14734;SDS011;7458;49.002;8.472;2022-08-19T04:51:42;31.67;;;28.65;;
14734;SDS011;7458;49.002;8.472;2022-08-19T04:54:10;31.70;;;27.25;;
14734;SDS011;7458;49.002;8.472;2022-08-19T04:56:38;29.02;;;25.85;;
14734;SDS011;7458;49.002;8.472;2022-08-19T04:59:05;29.33;;;26.35;;
14734;SDS011;7458;49.002;8.472;2022-08-19T05:01:33;29.23;;;26.40;;
14734;SDS011;7458;49.002;8.472;2022-08-19T05:04:01;29.35;;;26.50;;
14734;SDS011;7458;49.002;8.472;2022-08-19T05:06:32;32.00;;;28.77;;
14734;SDS011;7458;49.002;8.472;2022-08-19T05:09:01;30.10;;;27.10;;
14734;SDS011;7458;49.002;8.472;2022-08-19T05:11:32;32.47;;;27.85;;
14734;SDS011;7458;49.002;8.472;2022-08-19T05:14:04;30.42;;;27.42;;
14734;SDS011;7458;49.002;8.472;2022-08-19T05:16:32;30.80;;;27.98;;
14734;SDS011;7458;49.002;8.472;2022-08-19T05:18:58;33.55;;;26.85;;
14734;SDS011;7458;49.002;8.472;2022-08-19T05:21:43;28.80;;;25.90;;
14734;SDS011;7458;49.002;8.472;2022-08-19T05:24:28;37.57;;;29.00;;
14734;SDS011;7458;49.002;8.472;2022-08-19T05:26:54;30.08;;;27.40;;
14734;SDS011;7458;49.002;8.472;2022-08-19T05:29:22;31.23;;;28.23;;
14734;SDS011;7458;49.002;8.472;2022-08-19T05:31:51;31.63;;;28.50;;
14734;SDS011;7458;49.002;8.472;2022-08-19T05:34:19;31.25;;;28.10;;
14734;SDS011;7458;49.002;8.472;2022-08-19T05:36:48;31.23;;;25.67;;
14734;SDS011;7458;49.002;8.472;2022-08-19T05:39:17;30.35;;;27.45;;
14734;SDS011;7458;49.002;8.472;2022-08-19T05:41:46;32.75;;;27.42;;
14734;SDS011;7458;49.002;8.472;2022-08-19T05:44:15;29.20;;;26.15;;
14734;SDS011;7458;49.002;8.472;2022-08-19T05:46:43;29.95;;;26.98;;
14734;SDS011;7458;49.002;8.472;2022-08-19T05:49:12;32.42;;;29.23;;
14734;SDS011;7458;49.002;8.472;2022-08-19T05:51:39;29.55;;;26.67;;
14734;SDS011;7458;49.002;8.472;2022-08-19T05:54:05;31.60;;;28.50;;
14734;SDS011;7458;49.002;8.472;2022-08-19T05:56:33;31.50;;;28.17;;
14734;SDS011;7458;49.002;8.472;2022-08-19T05:59:03;30.58;;;27.58;;
14734;SDS011;7458;49.002;8.472;2022-08-19T06:01:34;30.58;;;27.67;;
14734;SDS011;7458;49.002;8.472;2022-08-19T06:04:04;30.83;;;27.67;;
14734;SDS011;7458;49.002;8.472;2022-08-19T06:06:31;28.48;;;25.90;;
14734;SDS011;7458;49.002;8.472;2022-08-19T06:09:00;28.40;;;25.70;;
14734;SDS011;7458;49.002;8.472;2022-08-19T06:14:16;31.23;;;27.65;;
14734;SDS011;7458;49.002;8.472;2022-08-19T06:16:45;28.73;;;26.07;;
14734;SDS011;7458;49.002;8.472;2022-08-19T06:19:12;31.10;;;27.02;;
14734;SDS011;7458;49.002;8.472;2022-08-19T06:21:42;30.13;;;27.17;;
14734;SDS011;7458;49.002;8.472;2022-08-19T06:24:12;30.17;;;27.08;;
14734;SDS011;7458;49.002;8.472;2022-08-19T06:26:42;28.90;;;25.83;;
14734;SDS011;7458;49.002;8.472;2022-08-19T06:29:12;29.70;;;26.85;;
14734;SDS011;7458;49.002;8.472;2022-08-19T06:31:42;26.33;;;23.63;;
14734;SDS011;7458;49.002;8.472;2022-08-19T06:34:11;25.88;;;23.33;;
14734;SDS011;7458;49.002;8.472;2022-08-19T06:36:39;25.83;;;23.27;;
14734;SDS011;7458;49.002;8.472;2022-08-19T06:39:10;26.83;;;24.02;;
14734;SDS011;7458;49.002;8.472;2022-08-19T06:41:40;25.77;;;23.20;;
14734;SDS011;7458;49.002;8.472;2022-08-19T06:44:13;29.05;;;26.25;;
14734;SDS011;7458;49.002;8.472;2022-08-19T06:46:40;25.75;;;23.35;;
14734;SDS011;7458;49.002;8.472;2022-08-19T06:49:07;25.95;;;22.77;;
14734;SDS011;7458;49.002;8.472;2022-08-19T06:51:39;25.45;;;23.15;;
14734;SDS011;7458;49.002;8.472;2022-08-19T06:54:08;24.42;;;22.15;;
14734;SDS011;7458;49.002;8.472;2022-08-19T06:56:35;21.92;;;19.30;;
14734;SDS011;7458;49.002;8.472;2022-08-19T06:59:02;23.92;;;21.60;;
14734;SDS011;7458;49.002;8.472;2022-08-19T07:01:39;22.88;;;20.73;;
14734;SDS011;7458;49.002;8.472;2022-08-19T07:04:12;25.33;;;22.65;;
14734;SDS011;7458;49.002;8.472;2022-08-19T07:06:41;1305.70;;;999.90;;
14734;SDS011;7458;49.002;8.472;2022-08-19T07:09:08;802.05;;;738.58;;
14734;SDS011;7458;49.002;8.472;2022-08-19T07:11:47;1320.57;;;999.90;;
14734;SDS011;7458;49.002;8.472;2022-08-19T07:14:16;1385.78;;;999.90;;
14734;SDS011;7458;49.002;8.472;2022-08-19T07:16:47;1387.93;;;999.90;;
14734;SDS011;7458;49.002;8.472;2022-08-19T07:19:16;1430.97;;;999.90;;
14734;SDS011;7458;49.002;8.472;2022-08-19T07:21:43;1424.55;;;999.90;;
14734;SDS011;7458;49.002;8.472;2022-08-19T07:24:11;1380.53;;;999.90;;
14734;SDS011;7458;49.002;8.472;2022-08-19T07:26:39;1420.88;;;999.90;;
14734;SDS011;7458;49.002;8.472;2022-08-19T07:29:08;1435.05;;;999.90;;
14734;SDS011;7458;49.002;8.472;2022-08-19T07:31:35;1446.97;;;999.90;;
14734;SDS011;7458;49.002;8.472;2022-08-19T07:34:05;1444.10;;;999.90;;
14734;SDS011;7458;49.002;8.472;2022-08-19T07:36:36;1313.43;;;999.90;;
14734;SDS011;7458;49.002;8.472;2022-08-19T07:39:09;1359.15;;;999.90;;
14734;SDS011;7458;49.002;8.472;2022-08-19T07:41:39;1437.43;;;999.90;;
14734;SDS011;7458;49.002;8.472;2022-08-19T07:44:06;1413.85;;;999.90;;
14734;SDS011;7458;49.002;8.472;2022-08-19T07:46:34;1370.18;;;999.90;;
14734;SDS011;7458;49.002;8.472;2022-08-19T07:49:03;1419.63;;;999.90;;
14734;SDS011;7458;49.002;8.472;2022-08-19T07:51:31;1414.43;;;999.90;;
14734;SDS011;7458;49.002;8.472;2022-08-19T07:53:58;1406.15;;;999.90;;
14734;SDS011;7458;49.002;8.472;2022-08-19T07:56:24;1402.00;;;999.90;;
14734;SDS011;7458;49.002;8.472;2022-08-19T07:58:52;420.77;;;377.63;;
14734;SDS011;7458;49.002;8.472;2022-08-19T08:01:21;16.23;;;14.43;;
14734;SDS011;7458;49.002;8.472;2022-08-19T08:03:51;16.38;;;14.60;;
14734;SDS011;7458;49.002;8.472;2022-08-19T08:06:37;16.92;;;15.43;;
14734;SDS011;7458;49.002;8.472;2022-08-19T08:09:27;16.80;;;15.10;;
14734;SDS011;7458;49.002;8.472;2022-08-19T08:12:01;15.52;;;14.02;;
14734;SDS011;7458;49.002;8.472;2022-08-19T08:14:33;17.63;;;13.98;;
14734;SDS011;7458;49.002;8.472;2022-08-19T08:17:04;15.52;;;13.32;;
14734;SDS011;7458;49.002;8.472;2022-08-19T08:19:32;15.05;;;13.70;;
14734;SDS011;7458;49.002;8.472;2022-08-19T08:21:59;16.25;;;13.80;;
14734;SDS011;7458;49.002;8.472;2022-08-19T08:24:27;15.65;;;12.77;;
14734;SDS011;7458;49.002;8.472;2022-08-19T08:26:56;13.70;;;12.38;;
14734;SDS011;7458;49.002;8.472;2022-08-19T08:29:25;15.85;;;14.25;;
14734;SDS011;7458;49.002;8.472;2022-08-19T08:31:52;18.48;;;14.63;;
14734;SDS011;7458;49.002;8.472;2022-08-19T08:34:19;13.32;;;12.00;;
14734;SDS011;7458;49.002;8.472;2022-08-19T08:36:46;14.48;;;12.93;;
14734;SDS011;7458;49.002;8.472;2022-08-19T08:39:16;12.98;;;11.68;;
14734;SDS011;7458;49.002;8.472;2022-08-19T08:42:25;13.75;;;12.20;;
14734;SDS011;7458;49.002;8.472;2022-08-19T08:47:40;14.85;;;12.30;;
14734;SDS011;7458;49.002;8.472;2022-08-19T08:50:16;12.88;;;11.55;;
14734;SDS011;7458;49.002;8.472;2022-08-19T08:52:51;13.23;;;11.82;;
14734;SDS011;7458;49.002;8.472;2022-08-19T08:55:23;12.15;;;10.85;;
14734;SDS011;7458;49.002;8.472;2022-08-19T08:57:55;9.27;;;8.43;;
14734;SDS011;7458;49.002;8.472;2022-08-19T09:00:56;15.18;;;11.00;;
14734;SDS011;7458;49.002;8.472;2022-08-19T09:03:24;13.98;;;9.43;;
14734;SDS011;7458;49.002;8.472;2022-08-19T09:06:02;12.48;;;11.00;;
14734;SDS011;7458;49.002;8.472;2022-08-19T09:08:47;10.88;;;9.73;;
14734;SDS011;7458;49.002;8.472;2022-08-19T09:11:37;10.40;;;7.63;;
14734;SDS011;7458;49.002;8.472;2022-08-19T09:17:13;10.90;;;7.25;;
14734;SDS011;7458;49.002;8.472;2022-08-19T09:19:48;9.43;;;8.60;;
14734;SDS011;7458;49.002;8.472;2022-08-19T09:22:21;8.77;;;7.95;;
14734;SDS011;7458;49.002;8.472;2022-08-19T09:24:49;11.43;;;8.02;;
14734;SDS011;7458;49.002;8.472;2022-08-19T09:27:20;11.43;;;9.43;;
14734;SDS011;7458;49.002;8.472;2022-08-19T09:29:49;12.02;;;9.32;;
14734;SDS011;7458;49.002;8.472;2022-08-19T09:32:16;12.10;;;10.02;;
14734;SDS011;7458;49.002;8.472;2022-08-19T09:34:43;11.82;;;10.35;;
14734;SDS011;7458;49.002;8.472;2022-08-19T09:37:09;10.45;;;8.95;;
14734;SDS011;7458;49.002;8.472;2022-08-19T09:39:39;15.18;;;9.85;;
14734;SDS011;7458;49.002;8.472;2022-08-19T09:42:07;10.35;;;9.23;;
14734;SDS011;7458;49.002;8.472;2022-08-19T09:44:39;10.98;;;9.85;;
14734;SDS011;7458;49.002;8.472;2022-08-19T09:47:06;11.95;;;10.75;;
14734;SDS011;7458;49.002;8.472;2022-08-19T09:49:34;11.65;;;9.38;;
14734;SDS011;7458;49.002;8.472;2022-08-19T09:52:01;17.02;;;10.43;;
14734;SDS011;7458;49.002;8.472;2022-08-19T09:54:27;9.02;;;7.95;;
14734;SDS011;7458;49.002;8.472;2022-08-19T09:56:53;20.17;;;8.48;;
14734;SDS011;7458;49.002;8.472;2022-08-19T09:59:20;8.27;;;7.47;;
14734;SDS011;7458;49.002;8.472;2022-08-19T10:01:47;13.23;;;8.50;;
14734;SDS011;7458;49.002;8.472;2022-08-19T10:04:12;7.55;;;6.85;;
14734;SDS011;7458;49.002;8.472;2022-08-19T10:06:39;10.88;;;8.48;;
14734;SDS011;7458;49.002;8.472;2022-08-19T10:09:07;8.52;;;7.63;;
14734;SDS011;7458;49.002;8.472;2022-08-19T10:11:35;9.85;;;8.85;;
14734;SDS011;7458;49.002;8.472;2022-08-19T10:14:05;9.73;;;8.82;;
14734;SDS011;7458;49.002;8.472;2022-08-19T10:16:32;12.57;;;8.63;;
14734;SDS011;7458;49.002;8.472;2022-08-19T10:19:00;8.45;;;7.65;;
14734;SDS011;7458;49.002;8.472;2022-08-19T10:21:27;12.45;;;7.50;;
14734;SDS011;7458;49.002;8.472;2022-08-19T10:23:59;8.88;;;8.02;;
14734;SDS011;7458;49.002;8.472;2022-08-19T10:26:30;8.07;;;7.25;;
14734;SDS011;7458;49.002;8.472;2022-08-19T10:29:02;7.95;;;7.15;;
14734;SDS011;7458;49.002;8.472;2022-08-19T10:31:30;9.00;;;8.07;;
14734;SDS011;7458;49.002;8.472;2022-08-19T10:33:58;7.82;;;7.07;;
14734;SDS011;7458;49.002;8.472;2022-08-19T10:36:27;8.20;;;7.40;;
14734;SDS011;7458;49.002;8.472;2022-08-19T10:39:00;8.90;;;8.02;;
14734;SDS011;7458;49.002;8.472;2022-08-19T10:41:34;8.02;;;6.85;;
14734;SDS011;7458;49.002;8.472;2022-08-19T10:44:04;8.25;;;7.45;;
14734;SDS011;7458;49.002;8.472;2022-08-19T10:46:36;8.20;;;7.40;;
14734;SDS011;7458;49.002;8.472;2022-08-19T10:49:06;7.97;;;7.18;;
14734;SDS011;7458;49.002;8.472;2022-08-19T10:51:36;7.95;;;7.25;;
14734;SDS011;7458;49.002;8.472;2022-08-19T10:54:22;16.00;;;7.20;;
14734;SDS011;7458;49.002;8.472;2022-08-19T10:57:09;11.25;;;8.00;;
14734;SDS011;7458;49.002;8.472;2022-08-19T10:59:34;7.90;;;7.20;;
14734;SDS011;7458;49.002;8.472;2022-08-19T11:02:01;8.50;;;7.70;;
14734;SDS011;7458;49.002;8.472;2022-08-19T11:04:32;13.25;;;9.27;;
14734;SDS011;7458;49.002;8.472;2022-08-19T11:06:58;11.45;;;9.68;;
14734;SDS011;7458;49.002;8.472;2022-08-19T11:09:24;9.75;;;8.80;;
14734;SDS011;7458;49.002;8.472;2022-08-19T11:11:54;7.95;;;7.18;;
14734;SDS011;7458;49.002;8.472;2022-08-19T11:14:21;8.20;;;7.50;;
14734;SDS011;7458;49.002;8.472;2022-08-19T11:16:49;8.23;;;7.53;;
14734;SDS011;7458;49.002;8.472;2022-08-19T11:19:18;11.35;;;8.45;;
14734;SDS011;7458;49.002;8.472;2022-08-19T11:21:45;9.20;;;8.40;;
14734;SDS011;7458;49.002;8.472;2022-08-19T11:24:14;9.90;;;8.95;;
14734;SDS011;7458;49.002;8.472;2022-08-19T11:26:45;8.57;;;7.60;;
14734;SDS011;7458;49.002;8.472;2022-08-19T11:29:15;9.82;;;8.65;;
14734;SDS011;7458;49.002;8.472;2022-08-19T11:31:46;9.18;;;7.07;;
14734;SDS011;7458;49.002;8.472;2022-08-19T11:34:16;9.45;;;8.55;;
14734;SDS011;7458;49.002;8.472;2022-08-19T11:36:53;12.82;;;8.25;;
14734;SDS011;7458;49.002;8.472;2022-08-19T11:39:24;10.50;;;8.45;;
14734;SDS011;7458;49.002;8.472;2022-08-19T11:41:54;8.50;;;7.80;;
14734;SDS011;7458;49.002;8.472;2022-08-19T11:44:20;8.63;;;6.82;;
14734;SDS011;7458;49.002;8.472;2022-08-19T11:46:46;10.00;;;7.78;;
14734;SDS011;7458;49.002;8.472;2022-08-19T11:49:12;7.45;;;6.80;;
14734;SDS011;7458;49.002;8.472;2022-08-19T11:51:44;9.57;;;8.75;;
14734;SDS011;7458;49.002;8.472;2022-08-19T11:54:11;7.28;;;6.57;;
14734;SDS011;7458;49.002;8.472;2022-08-19T11:56:40;9.20;;;8.40;;
14734;SDS011;7458;49.002;8.472;2022-08-19T11:59:07;8.38;;;7.65;;
14734;SDS011;7458;49.002;8.472;2022-08-19T12:01:33;9.38;;;8.48;;
14734;SDS011;7458;49.002;8.472;2022-08-19T12:03:59;8.93;;;7.82;;
14734;SDS011;7458;49.002;8.472;2022-08-19T12:06:27;8.85;;;8.05;;
14734;SDS011;7458;49.002;8.472;2022-08-19T12:09:00;8.82;;;8.02;;
14734;SDS011;7458;49.002;8.472;2022-08-19T12:11:32;9.65;;;7.40;;
14734;SDS011;7458;49.002;8.472;2022-08-19T12:13:59;8.30;;;7.53;;
14734;SDS011;7458;49.002;8.472;2022-08-19T12:16:26;10.13;;;8.85;;
14734;SDS011;7458;49.002;8.472;2022-08-19T12:18:55;7.28;;;6.57;;
14734;SDS011;7458;49.002;8.472;2022-08-19T12:21:23;10.85;;;7.80;;
14734;SDS011;7458;49.002;8.472;2022-08-19T12:23:55;8.73;;;7.97;;
14734;SDS011;7458;49.002;8.472;2022-08-19T12:26:24;8.02;;;7.30;;
14734;SDS011;7458;49.002;8.472;2022-08-19T12:28:53;8.13;;;7.43;;
14734;SDS011;7458;49.002;8.472;2022-08-19T12:31:19;8.48;;;7.78;;
14734;SDS011;7458;49.002;8.472;2022-08-19T12:33:45;9.20;;;8.32;;
14734;SDS011;7458;49.002;8.472;2022-08-19T12:36:13;9.02;;;8.25;;
14734;SDS011;7458;49.002;8.472;2022-08-19T12:38:42;8.73;;;7.93;;
14734;SDS011;7458;49.002;8.472;2022-08-19T12:41:10;10.63;;;8.07;;
14734;SDS011;7458;49.002;8.472;2022-08-19T12:43:42;7.43;;;6.80;;
14734;SDS011;7458;49.002;8.472;2022-08-19T12:46:09;8.30;;;7.53;;
14734;SDS011;7458;49.002;8.472;2022-08-19T12:48:36;8.38;;;7.65;;
14734;SDS011;7458;49.002;8.472;2022-08-19T12:51:09;8.13;;;7.43;;
14734;SDS011;7458;49.002;8.472;2022-08-19T12:53:38;7.88;;;7.28;;
14734;SDS011;7458;49.002;8.472;2022-08-19T12:56:06;7.18;;;6.57;;
14734;SDS011;7458;49.002;8.472;2022-08-19T12:58:34;8.68;;;7.82;;
14734;SDS011;7458;49.002;8.472;2022-08-19T13:01:10;9.13;;;8.02;;
14734;SDS011;7458;49.002;8.472;2022-08-19T13:03:39;9.15;;;8.35;;
14734;SDS011;7458;49.002;8.472;2022-08-19T13:06:05;8.63;;;7.93;;
14734;SDS011;7458;49.002;8.472;2022-08-19T13:08:32;7.80;;;7.10;;
14734;SDS011;7458;49.002;8.472;2022-08-19T13:10:57;8.65;;;7.95;;
14734;SDS011;7458;49.002;8.472;2022-08-19T13:13:41;9.35;;;7.78;;
14734;SDS011;7458;49.002;8.472;2022-08-19T13:16:09;9.73;;;8.77;;
14734;SDS011;7458;49.002;8.472;2022-08-19T13:18:37;7.80;;;7.20;;
14734;SDS011;7458;49.002;8.472;2022-08-19T13:21:07;8.85;;;8.05;;
14734;SDS011;7458;49.002;8.472;2022-08-19T13:23:38;7.63;;;7.03;;
14734;SDS011;7458;49.002;8.472;2022-08-19T13:26:06;14.10;;;7.78;;
14734;SDS011;7458;49.002;8.472;2022-08-19T13:28:35;8.23;;;7.53;;
14734;SDS011;7458;49.002;8.472;2022-08-19T13:31:20;7.97;;;7.28;;
14734;SDS011;7458;49.002;8.472;2022-08-19T13:34:07;8.05;;;7.30;;
14734;SDS011;7458;49.002;8.472;2022-08-19T13:36:34;8.23;;;7.53;;
14734;SDS011;7458;49.002;8.472;2022-08-19T13:39:02;7.95;;;7.25;;
14734;SDS011;7458;49.002;8.472;2022-08-19T13:41:29;7.43;;;6.80;;
14734;SDS011;7458;49.002;8.472;2022-08-19T13:43:56;6.95;;;6.35;;
14734;SDS011;7458;49.002;8.472;2022-08-19T13:46:22;6.57;;;6.07;;
14734;SDS011;7458;49.002;8.472;2022-08-19T13:48:47;8.40;;;7.53;;
14734;SDS011;7458;49.002;8.472;2022-08-19T13:51:14;8.25;;;5.68;;
14734;SDS011;7458;49.002;8.472;2022-08-19T13:53:42;5.80;;;5.30;;
14734;SDS011;7458;49.002;8.472;2022-08-19T13:56:11;6.30;;;5.70;;
14734;SDS011;7458;49.002;8.472;2022-08-19T13:58:44;6.43;;;5.82;;
14734;SDS011;7458;49.002;8.472;2022-08-19T14:01:11;6.07;;;5.47;;
14734;SDS011;7458;49.002;8.472;2022-08-19T14:03:37;7.88;;;7.18;;
14734;SDS011;7458;49.002;8.472;2022-08-19T14:06:03;7.35;;;6.75;;
14734;SDS011;7458;49.002;8.472;2022-08-19T14:08:29;8.45;;;7.75;;
14734;SDS011;7458;49.002;8.472;2022-08-19T14:10:57;7.78;;;7.07;;
14734;SDS011;7458;49.002;8.472;2022-08-19T14:13:23;6.95;;;6.35;;
14734;SDS011;7458;49.002;8.472;2022-08-19T14:15:49;8.25;;;6.95;;
14734;SDS011;7458;49.002;8.472;2022-08-19T14:18:17;6.50;;;5.90;;
14734;SDS011;7458;49.002;8.472;2022-08-19T14:20:44;7.43;;;6.72;;
14734;SDS011;7458;49.002;8.472;2022-08-19T14:23:10;8.30;;;7.60;;
14734;SDS011;7458;49.002;8.472;2022-08-19T14:25:37;7.97;;;6.55;;
14734;SDS011;7458;49.002;8.472;2022-08-19T14:28:03;7.57;;;6.78;;
14734;SDS011;7458;49.002;8.472;2022-08-19T14:30:30;8.07;;;7.38;;
14734;SDS011;7458;49.002;8.472;2022-08-19T14:32:59;7.15;;;6.55;;
14734;SDS011;7458;49.002;8.472;2022-08-19T14:35:30;10.85;;;5.78;;
14734;SDS011;7458;49.002;8.472;2022-08-19T14:38:01;9.63;;;5.68;;
14734;SDS011;7458;49.002;8.472;2022-08-19T14:40:30;6.22;;;4.25;;
14734;SDS011;7458;49.002;8.472;2022-08-19T14:42:58;5.00;;;4.45;;
14734;SDS011;7458;49.002;8.472;2022-08-19T14:45:30;5.40;;;4.88;;
14734;SDS011;7458;49.002;8.472;2022-08-19T14:47:59;6.18;;;5.10;;
14734;SDS011;7458;49.002;8.472;2022-08-19T14:50:25;8.38;;;5.88;;
14734;SDS011;7458;49.002;8.472;2022-08-19T14:52:57;5.30;;;4.80;;
14734;SDS011;7458;49.002;8.472;2022-08-19T14:55:32;4.57;;;4.13;;
14734;SDS011;7458;49.002;8.472;2022-08-19T14:57:58;8.73;;;5.50;;
14734;SDS011;7458;49.002;8.472;2022-08-19T15:00:24;7.55;;;4.72;;
14734;SDS011;7458;49.002;8.472;2022-08-19T15:02:51;5.88;;;5.22;;
14734;SDS011;7458;49.002;8.472;2022-08-19T15:05:19;6.28;;;4.50;;
14734;SDS011;7458;49.002;8.472;2022-08-19T15:07:46;6.80;;;4.43;;
14734;SDS011;7458;49.002;8.472;2022-08-19T15:10:12;5.45;;;4.40;;